Cook, MN

6:39 PM CDT on May 26, 2018 (GMT -0500)
Cook Municipal

Weather History for KCQM - April, 2013

Change the Weather History Date:

Tuesday, April 23, 2013

  Actual Average Record
Temperature  
Mean Temperature 34 °F -  
Max Temperature 41 °F 53 °F 73 °F (2009)
Min Temperature 24 °F 27 °F 3 °F (1998)
Degree Days  
Heating Degree Days 32    
Moisture  
Dew Point 17 °F    
Average Humidity 53    
Maximum Humidity 75    
Minimum Humidity 29    
Precipitation  
Precipitation 0.00 in - - ()
Sea Level Pressure  
Sea Level Pressure 30.07 in    
Wind  
Wind Speed 4 mph (NW)    
Max Wind Speed 13 mph    
Max Gust Speed 22 mph    
Visibility 10 miles    
Events      
Averages and records for this station are not official NWS values.
T = Trace of Precipitation, MM = Missing Value Source: NWS Daily Summary

Daily Weather History Graph

Daily Weather History Graph

Search for Another Location

Airport or City:

Astronomy

Apr. 23, 2013 Rise Set
Actual Time 6:06 AM CDT 8:12 PM CDT
Civil Twilight 5:32 AM CDT 8:46 PM CDT
Nautical Twilight 4:51 AM CDT 9:27 PM CDT
Astronomical Twilight 4:05 AM CDT 10:14 PM CDT
Moon 6:00 PM CDT (4/23) 4:44 AM CDT (4/23)
Length of Visible Light 15h 13m
Length of Day
14h 06m
Waxing Gibbous, 94% of the Moon is Illuminated
Apr 23
Waxing Gibbous
Apr 25
Full
May 2
Last Quarter
May 9
New
May 17
First Quarter

Hourly Weather History & Observations

Time (CDT) Temp. Windchill Dew Point Humidity Pressure Visibility Wind Dir Wind Speed Gust Speed Precip Events Conditions
12:16 AM 30.2 °F - 23.0 °F 75% 30.18 in 10.0 mi Calm Calm - N/A   Overcast
12:37 AM 30.2 °F - 21.2 °F 69% 30.17 in 10.0 mi Calm Calm - N/A   Overcast
12:56 AM 30.2 °F 26.7 °F 21.2 °F 69% 30.17 in 10.0 mi NW 3.5 mph - N/A   Overcast
1:16 AM 30.2 °F 26.7 °F 21.2 °F 69% 30.16 in 10.0 mi NNW 3.5 mph - N/A   Overcast
1:37 AM 30.2 °F - 21.2 °F 69% 30.15 in 10.0 mi Calm Calm - N/A   Mostly Cloudy
1:56 AM 30.2 °F 26.7 °F 21.2 °F 69% 30.15 in 10.0 mi North 3.5 mph - N/A   Overcast
2:16 AM 30.2 °F 26.7 °F 21.2 °F 69% 30.14 in 10.0 mi NNW 3.5 mph - N/A   Overcast
2:37 AM 30.2 °F 26.7 °F 21.2 °F 69% 30.14 in 10.0 mi NNW 3.5 mph - N/A   Overcast
2:56 AM 30.2 °F 26.7 °F 21.2 °F 69% 30.14 in 10.0 mi North 3.5 mph - N/A   Overcast
3:16 AM 30.2 °F 25.4 °F 21.2 °F 69% 30.14 in 10.0 mi North 4.6 mph - N/A   Overcast
3:37 AM 30.2 °F 25.4 °F 21.2 °F 69% 30.14 in 10.0 mi North 4.6 mph - N/A   Overcast
3:56 AM 30.2 °F 25.4 °F 21.2 °F 69% 30.14 in 10.0 mi North 4.6 mph - N/A   Overcast
4:16 AM 30.2 °F 26.7 °F 21.2 °F 69% 30.14 in 10.0 mi NNE 3.5 mph - N/A   Overcast
4:37 AM 30.2 °F 26.7 °F 21.2 °F 69% 30.14 in 10.0 mi North 3.5 mph - N/A   Overcast
4:56 AM 28.4 °F - 21.2 °F 74% 30.14 in 10.0 mi Calm Calm - N/A   Overcast
5:16 AM 28.4 °F - 21.2 °F 74% 30.13 in 10.0 mi Calm Calm - N/A   Overcast
5:37 AM 28.4 °F - 21.2 °F 74% 30.12 in 10.0 mi Calm Calm - N/A   Overcast
5:56 AM 28.4 °F 24.6 °F 21.2 °F 74% 30.12 in 10.0 mi NNW 3.5 mph - N/A   Overcast
6:16 AM 28.4 °F 24.6 °F 21.2 °F 74% 30.11 in 10.0 mi North 3.5 mph - N/A   Mostly Cloudy
6:37 AM 26.6 °F - 19.4 °F 74% 30.12 in 10.0 mi Calm Calm - N/A   Scattered Clouds
6:56 AM 26.6 °F - 19.4 °F 74% 30.12 in 10.0 mi Calm Calm - N/A   Scattered Clouds
7:16 AM 26.6 °F 22.6 °F 19.4 °F 74% 30.12 in 10.0 mi NW 3.5 mph - N/A   Clear
7:37 AM 28.4 °F 24.6 °F 19.4 °F 69% 30.12 in 10.0 mi NW 3.5 mph - N/A   Clear
7:56 AM 28.4 °F 24.6 °F 19.4 °F 69% 30.12 in 10.0 mi NNW 3.5 mph - N/A   Clear
8:16 AM 30.2 °F 24.3 °F 19.4 °F 64% 30.13 in 10.0 mi North 5.8 mph - N/A   Clear
8:37 AM 30.2 °F 24.3 °F 17.6 °F 60% 30.13 in 10.0 mi NNW 5.8 mph - N/A   Clear
8:56 AM 32.0 °F 24.2 °F 15.8 °F 51% 30.13 in 10.0 mi North 9.2 mph - N/A   Clear
9:17 AM 32.0 °F 25.6 °F 15.8 °F 51% 30.12 in 10.0 mi North 6.9 mph - N/A   Scattered Clouds
9:37 AM 32.0 °F 24.2 °F 15.8 °F 51% 30.11 in 10.0 mi NNE 9.2 mph - N/A   Scattered Clouds
9:56 AM 33.8 °F 30.8 °F 15.8 °F 48% 30.11 in 10.0 mi North 3.5 mph - N/A   Scattered Clouds
10:17 AM 33.8 °F 26.4 °F 15.8 °F 48% 30.10 in 10.0 mi NNW 9.2 mph - N/A   Scattered Clouds
10:37 AM 33.8 °F 27.7 °F 15.8 °F 48% 30.10 in 10.0 mi NNW 6.9 mph 17.3 mph N/A   Mostly Cloudy
10:56 AM 33.8 °F 25.3 °F 15.8 °F 48% 30.09 in 10.0 mi WNW 11.5 mph 16.1 mph N/A   Mostly Cloudy
11:17 AM 35.6 °F 28.6 °F 14.0 °F 41% 30.09 in 10.0 mi NNW 9.2 mph 16.1 mph N/A   Scattered Clouds
11:37 AM 35.6 °F 29.2 °F 15.8 °F 44% 30.08 in 10.0 mi WNW 8.1 mph 17.3 mph N/A   Mostly Cloudy
11:56 AM 35.6 °F 27.5 °F 15.8 °F 44% 30.08 in 10.0 mi West 11.5 mph - N/A   Scattered Clouds
12:17 PM 35.6 °F 28.0 °F 14.0 °F 41% 30.07 in 10.0 mi WNW 10.4 mph 16.1 mph N/A   Scattered Clouds
12:37 PM 37.4 °F 30.3 °F 14.0 °F 38% 30.07 in 10.0 mi WNW 10.4 mph 16.1 mph N/A   Scattered Clouds
12:56 PM 37.4 °F 30.8 °F 14.0 °F 38% 30.06 in 10.0 mi NNW 9.2 mph - N/A   Clear
1:17 PM 37.4 °F 30.8 °F 14.0 °F 38% 30.05 in 10.0 mi NW 9.2 mph - N/A   Clear
1:37 PM 37.4 °F 32.1 °F 15.8 °F 41% 30.04 in 10.0 mi WNW 6.9 mph - N/A   Scattered Clouds
1:56 PM 37.4 °F 29.3 °F 15.8 °F 41% 30.04 in 10.0 mi West 12.7 mph - N/A   Scattered Clouds
2:17 PM 37.4 °F 29.3 °F 15.8 °F 41% 30.03 in 10.0 mi WNW 12.7 mph 17.3 mph N/A   Scattered Clouds
2:37 PM 39.2 °F 32.0 °F 14.0 °F 36% 30.03 in 10.0 mi WNW 11.5 mph - N/A   Clear
2:56 PM 39.2 °F 32.5 °F 12.2 °F 33% 30.03 in 10.0 mi NW 10.4 mph 21.9 mph N/A   Clear
3:17 PM 39.2 °F 33.0 °F 12.2 °F 33% 30.02 in 10.0 mi WNW 9.2 mph - N/A   Clear
3:37 PM 39.2 °F 33.6 °F 12.2 °F 33% 30.01 in 10.0 mi WNW 8.1 mph - N/A   Clear
3:56 PM 39.2 °F 33.6 °F 10.4 °F 31% 30.01 in 10.0 mi NNW 8.1 mph 17.3 mph N/A   Clear
4:16 PM 39.2 °F 33.0 °F 12.2 °F 33% 30.01 in 10.0 mi NW 9.2 mph - N/A   Clear
4:37 PM 39.2 °F 33.0 °F 12.2 °F 33% 30.00 in 10.0 mi West 9.2 mph - N/A   Clear
4:56 PM 39.2 °F 33.6 °F 10.4 °F 31% 30.00 in 10.0 mi NNW 8.1 mph - N/A   Clear
5:17 PM 39.2 °F 35.0 °F 12.2 °F 33% 30.00 in 10.0 mi NW 5.8 mph - N/A   Clear
5:37 PM 41.0 °F 35.2 °F 10.4 °F 29% 29.99 in 10.0 mi NNW 9.2 mph - N/A   Clear
5:56 PM 39.2 °F 35.9 °F 10.4 °F 31% 29.99 in 10.0 mi WNW 4.6 mph - N/A   Clear
6:17 PM 39.2 °F 34.2 °F 10.4 °F 31% 29.99 in 10.0 mi NNW 6.9 mph - N/A   Clear
6:36 PM 39.2 °F 37.0 °F 10.4 °F 31% 29.98 in 10.0 mi NW 3.5 mph - N/A   Clear
6:57 PM 39.2 °F 35.0 °F 12.2 °F 33% 29.98 in 10.0 mi WNW 5.8 mph - N/A   Clear
7:16 PM 39.2 °F 35.9 °F 12.2 °F 33% 29.98 in 10.0 mi WNW 4.6 mph - N/A   Clear
7:36 PM 39.2 °F 37.0 °F 10.4 °F 31% 29.98 in 10.0 mi NW 3.5 mph - N/A   Clear
7:57 PM 37.4 °F - 10.4 °F 33% 29.98 in 10.0 mi Calm Calm - N/A   Clear
8:16 PM 35.6 °F - 10.4 °F 35% 29.98 in 10.0 mi Calm Calm - N/A   Clear
8:36 PM 32.0 °F - 15.8 °F 51% 29.98 in 10.0 mi Calm Calm - N/A   Clear
8:57 PM 30.2 °F - 12.2 °F 47% 29.99 in 10.0 mi Calm Calm - N/A   Clear
9:16 PM 30.2 °F 24.3 °F 17.6 °F 60% 29.99 in 10.0 mi West 5.8 mph - N/A   Clear
9:36 PM 32.0 °F 28.7 °F 17.6 °F 55% 29.99 in 10.0 mi West 3.5 mph - N/A   Clear
9:56 PM 30.2 °F 25.4 °F 17.6 °F 60% 29.99 in 10.0 mi West 4.6 mph - N/A   Clear
10:16 PM 30.2 °F 25.4 °F 17.6 °F 60% 29.99 in 10.0 mi West 4.6 mph - N/A   Clear
10:37 PM 28.4 °F 24.6 °F 17.6 °F 64% 29.99 in 10.0 mi West 3.5 mph - N/A   Clear
10:56 PM 28.4 °F 23.3 °F 17.6 °F 64% 29.98 in 10.0 mi West 4.6 mph - N/A   Clear
11:17 PM 28.4 °F 24.6 °F 17.6 °F 64% 29.98 in 10.0 mi West 3.5 mph - N/A   Clear
11:36 PM 28.4 °F 24.6 °F 17.6 °F 64% 29.98 in 10.0 mi West 3.5 mph - N/A   Clear
11:57 PM 24.8 °F 20.5 °F 17.6 °F 74% 29.98 in 10.0 mi West 3.5 mph - N/A   Clear